sensor_id;sensor_type;location;lat;lon;timestamp;temperature;humidity
21672;DHT22;10997;52.242;8.168;2023-06-10T00:03:37;19.00;99.90
21672;DHT22;10997;52.242;8.168;2023-06-10T00:08:38;18.90;99.90
21672;DHT22;10997;52.242;8.168;2023-06-10T00:13:40;18.90;99.90
21672;DHT22;10997;52.242;8.168;2023-06-10T00:18:41;18.80;99.90
21672;DHT22;10997;52.242;8.168;2023-06-10T00:23:42;18.60;99.90
21672;DHT22;10997;52.242;8.168;2023-06-10T00:28:42;18.50;99.90
21672;DHT22;10997;52.242;8.168;2023-06-10T00:33:45;18.40;99.90
21672;DHT22;10997;52.242;8.168;2023-06-10T00:38:45;18.30;99.90
21672;DHT22;10997;52.242;8.168;2023-06-10T00:43:46;18.30;99.90
21672;DHT22;10997;52.242;8.168;2023-06-10T00:48:47;18.20;99.90
21672;DHT22;10997;52.242;8.168;2023-06-10T00:53:48;18.20;99.90
21672;DHT22;10997;52.242;8.168;2023-06-10T00:58:49;18.00;99.90
21672;DHT22;10997;52.242;8.168;2023-06-10T01:03:50;17.80;99.90
21672;DHT22;10997;52.242;8.168;2023-06-10T01:09:06;17.70;99.90
21672;DHT22;10997;52.242;8.168;2023-06-10T01:14:11;17.60;99.90
21672;DHT22;10997;52.242;8.168;2023-06-10T01:19:14;17.50;99.90
21672;DHT22;10997;52.242;8.168;2023-06-10T01:24:18;17.40;99.90
21672;DHT22;10997;52.242;8.168;2023-06-10T01:29:24;17.30;99.90
21672;DHT22;10997;52.242;8.168;2023-06-10T01:34:26;17.20;99.90
21672;DHT22;10997;52.242;8.168;2023-06-10T01:39:28;17.10;99.90
21672;DHT22;10997;52.242;8.168;2023-06-10T01:44:29;17.10;99.90
21672;DHT22;10997;52.242;8.168;2023-06-10T01:49:29;17.10;99.90
21672;DHT22;10997;52.242;8.168;2023-06-10T01:54:30;17.00;99.90
21672;DHT22;10997;52.242;8.168;2023-06-10T01:59:31;17.00;99.90
21672;DHT22;10997;52.242;8.168;2023-06-10T02:04:32;16.90;99.90
21672;DHT22;10997;52.242;8.168;2023-06-10T02:09:33;16.80;99.90
21672;DHT22;10997;52.242;8.168;2023-06-10T02:14:35;16.70;99.90
21672;DHT22;10997;52.242;8.168;2023-06-10T02:19:36;16.60;99.90
21672;DHT22;10997;52.242;8.168;2023-06-10T02:24:38;16.50;99.90
21672;DHT22;10997;52.242;8.168;2023-06-10T02:29:39;16.50;99.90
21672;DHT22;10997;52.242;8.168;2023-06-10T02:34:41;16.40;99.90
21672;DHT22;10997;52.242;8.168;2023-06-10T02:39:43;16.30;99.90
21672;DHT22;10997;52.242;8.168;2023-06-10T02:44:43;16.10;99.90
21672;DHT22;10997;52.242;8.168;2023-06-10T02:49:44;16.00;99.90
21672;DHT22;10997;52.242;8.168;2023-06-10T02:54:44;15.90;99.90
21672;DHT22;10997;52.242;8.168;2023-06-10T02:59:46;15.80;99.90
21672;DHT22;10997;52.242;8.168;2023-06-10T03:04:47;15.90;99.90
21672;DHT22;10997;52.242;8.168;2023-06-10T03:09:48;15.80;99.90
21672;DHT22;10997;52.242;8.168;2023-06-10T03:14:49;15.80;99.90
21672;DHT22;10997;52.242;8.168;2023-06-10T03:19:49;15.70;99.90
21672;DHT22;10997;52.242;8.168;2023-06-10T03:24:50;15.70;99.90
21672;DHT22;10997;52.242;8.168;2023-06-10T03:29:51;15.70;99.90
21672;DHT22;10997;52.242;8.168;2023-06-10T03:34:52;15.60;99.90
21672;DHT22;10997;52.242;8.168;2023-06-10T03:39:57;15.70;99.90
21672;DHT22;10997;52.242;8.168;2023-06-10T03:44:58;15.60;99.90
21672;DHT22;10997;52.242;8.168;2023-06-10T03:49:58;15.70;99.90
21672;DHT22;10997;52.242;8.168;2023-06-10T03:54:59;15.70;99.90
21672;DHT22;10997;52.242;8.168;2023-06-10T03:59:59;15.70;99.90
21672;DHT22;10997;52.242;8.168;2023-06-10T04:05:00;15.70;99.90
21672;DHT22;10997;52.242;8.168;2023-06-10T04:10:01;15.70;99.90
21672;DHT22;10997;52.242;8.168;2023-06-10T04:15:04;15.70;99.90
21672;DHT22;10997;52.242;8.168;2023-06-10T04:20:05;15.70;99.90
21672;DHT22;10997;52.242;8.168;2023-06-10T04:25:09;15.80;99.90
21672;DHT22;10997;52.242;8.168;2023-06-10T04:30:10;15.90;99.90
21672;DHT22;10997;52.242;8.168;2023-06-10T04:35:12;16.00;99.90
21672;DHT22;10997;52.242;8.168;2023-06-10T04:40:13;16.10;99.90
21672;DHT22;10997;52.242;8.168;2023-06-10T04:45:14;16.30;99.90
21672;DHT22;10997;52.242;8.168;2023-06-10T04:50:15;16.40;99.90
21672;DHT22;10997;52.242;8.168;2023-06-10T04:55:16;16.50;99.90
21672;DHT22;10997;52.242;8.168;2023-06-10T05:00:17;16.70;99.90
21672;DHT22;10997;52.242;8.168;2023-06-10T05:05:18;16.80;99.90
21672;DHT22;10997;52.242;8.168;2023-06-10T05:10:19;16.90;99.90
21672;DHT22;10997;52.242;8.168;2023-06-10T05:15:19;17.00;99.90
21672;DHT22;10997;52.242;8.168;2023-06-10T05:20:20;17.10;99.90
21672;DHT22;10997;52.242;8.168;2023-06-10T05:25:21;17.20;99.90
21672;DHT22;10997;52.242;8.168;2023-06-10T05:30:22;17.30;99.90
21672;DHT22;10997;52.242;8.168;2023-06-10T05:35:24;17.40;99.90
21672;DHT22;10997;52.242;8.168;2023-06-10T05:40:25;17.50;99.90
21672;DHT22;10997;52.242;8.168;2023-06-10T05:45:27;17.50;99.90
21672;DHT22;10997;52.242;8.168;2023-06-10T05:50:27;17.50;99.90
21672;DHT22;10997;52.242;8.168;2023-06-10T05:55:28;17.60;99.90
21672;DHT22;10997;52.242;8.168;2023-06-10T06:00:28;17.50;99.90
21672;DHT22;10997;52.242;8.168;2023-06-10T06:05:30;17.50;99.90
21672;DHT22;10997;52.242;8.168;2023-06-10T06:10:35;17.80;99.90
21672;DHT22;10997;52.242;8.168;2023-06-10T06:15:35;17.90;99.90
21672;DHT22;10997;52.242;8.168;2023-06-10T06:20:36;18.00;99.90
21672;DHT22;10997;52.242;8.168;2023-06-10T06:25:37;18.00;99.90
21672;DHT22;10997;52.242;8.168;2023-06-10T06:30:39;18.20;99.90
21672;DHT22;10997;52.242;8.168;2023-06-10T06:35:39;18.50;99.90
21672;DHT22;10997;52.242;8.168;2023-06-10T06:40:40;18.70;99.90
21672;DHT22;10997;52.242;8.168;2023-06-10T06:45:41;18.80;99.90
21672;DHT22;10997;52.242;8.168;2023-06-10T06:50:41;18.90;99.90
21672;DHT22;10997;52.242;8.168;2023-06-10T06:55:42;19.00;99.90
21672;DHT22;10997;52.242;8.168;2023-06-10T07:00:43;19.10;99.90
21672;DHT22;10997;52.242;8.168;2023-06-10T07:05:43;19.40;99.90
21672;DHT22;10997;52.242;8.168;2023-06-10T07:10:44;19.70;99.90
21672;DHT22;10997;52.242;8.168;2023-06-10T07:15:45;19.90;99.90
21672;DHT22;10997;52.242;8.168;2023-06-10T07:20:45;20.10;99.90
21672;DHT22;10997;52.242;8.168;2023-06-10T07:25:46;20.10;99.90
21672;DHT22;10997;52.242;8.168;2023-06-10T07:30:47;20.20;99.90
21672;DHT22;10997;52.242;8.168;2023-06-10T07:35:47;20.20;99.90
21672;DHT22;10997;52.242;8.168;2023-06-10T07:40:48;20.30;99.90
21672;DHT22;10997;52.242;8.168;2023-06-10T07:45:49;20.30;99.90
21672;DHT22;10997;52.242;8.168;2023-06-10T07:50:55;20.60;99.90
21672;DHT22;10997;52.242;8.168;2023-06-10T07:55:56;20.70;99.90
21672;DHT22;10997;52.242;8.168;2023-06-10T08:00:56;21.00;99.90
21672;DHT22;10997;52.242;8.168;2023-06-10T08:05:57;21.30;99.90
21672;DHT22;10997;52.242;8.168;2023-06-10T08:10:57;21.60;99.90
21672;DHT22;10997;52.242;8.168;2023-06-10T08:15:58;21.90;99.90
21672;DHT22;10997;52.242;8.168;2023-06-10T08:20:59;22.10;99.90
21672;DHT22;10997;52.242;8.168;2023-06-10T08:26:00;22.30;99.90
21672;DHT22;10997;52.242;8.168;2023-06-10T08:31:02;22.30;99.90
21672;DHT22;10997;52.242;8.168;2023-06-10T08:36:03;22.30;99.90
21672;DHT22;10997;52.242;8.168;2023-06-10T08:41:05;22.80;99.90
21672;DHT22;10997;52.242;8.168;2023-06-10T08:46:08;22.80;99.90
21672;DHT22;10997;52.242;8.168;2023-06-10T08:51:10;22.90;99.90
21672;DHT22;10997;52.242;8.168;2023-06-10T08:56:12;23.20;99.90
21672;DHT22;10997;52.242;8.168;2023-06-10T09:01:13;23.30;99.90
21672;DHT22;10997;52.242;8.168;2023-06-10T09:06:14;23.50;99.90
21672;DHT22;10997;52.242;8.168;2023-06-10T09:11:15;23.90;99.90
21672;DHT22;10997;52.242;8.168;2023-06-10T09:16:15;23.80;99.90
21672;DHT22;10997;52.242;8.168;2023-06-10T09:21:16;24.10;99.90
21672;DHT22;10997;52.242;8.168;2023-06-10T09:26:17;24.40;99.50
21672;DHT22;10997;52.242;8.168;2023-06-10T09:31:18;24.40;99.30
21672;DHT22;10997;52.242;8.168;2023-06-10T09:36:22;24.80;99.70
21672;DHT22;10997;52.242;8.168;2023-06-10T09:41:34;25.30;99.10
21672;DHT22;10997;52.242;8.168;2023-06-10T09:46:35;25.50;98.60
21672;DHT22;10997;52.242;8.168;2023-06-10T09:51:36;25.40;97.80
21672;DHT22;10997;52.242;8.168;2023-06-10T09:56:37;25.40;96.70
21672;DHT22;10997;52.242;8.168;2023-06-10T10:01:38;25.60;96.30
21672;DHT22;10997;52.242;8.168;2023-06-10T10:06:39;25.80;95.10
21672;DHT22;10997;52.242;8.168;2023-06-10T10:11:40;25.70;94.90
21672;DHT22;10997;52.242;8.168;2023-06-10T10:16:42;25.90;94.70
21672;DHT22;10997;52.242;8.168;2023-06-10T10:21:49;26.30;94.20
21672;DHT22;10997;52.242;8.168;2023-06-10T10:26:51;26.30;94.20
21672;DHT22;10997;52.242;8.168;2023-06-10T10:31:56;26.50;93.30
21672;DHT22;10997;52.242;8.168;2023-06-10T10:36:57;26.80;92.60
21672;DHT22;10997;52.242;8.168;2023-06-10T10:41:58;27.00;92.30
21672;DHT22;10997;52.242;8.168;2023-06-10T10:47:02;26.80;92.00
21672;DHT22;10997;52.242;8.168;2023-06-10T10:52:04;26.90;91.20
21672;DHT22;10997;52.242;8.168;2023-06-10T11:07:34;27.30;88.20
21672;DHT22;10997;52.242;8.168;2023-06-10T11:12:41;27.40;86.70
21672;DHT22;10997;52.242;8.168;2023-06-10T11:18:22;27.10;85.90
21672;DHT22;10997;52.242;8.168;2023-06-10T11:28:29;27.50;83.40
21672;DHT22;10997;52.242;8.168;2023-06-10T11:33:31;27.40;82.50
21672;DHT22;10997;52.242;8.168;2023-06-10T11:38:32;27.60;81.20
21672;DHT22;10997;52.242;8.168;2023-06-10T11:43:33;27.60;81.10
21672;DHT22;10997;52.242;8.168;2023-06-10T11:48:34;27.90;79.90
21672;DHT22;10997;52.242;8.168;2023-06-10T11:53:34;28.00;79.00
21672;DHT22;10997;52.242;8.168;2023-06-10T11:58:35;28.20;80.00
21672;DHT22;10997;52.242;8.168;2023-06-10T12:03:37;28.60;80.10
21672;DHT22;10997;52.242;8.168;2023-06-10T12:08:43;28.70;78.40
21672;DHT22;10997;52.242;8.168;2023-06-10T12:13:48;28.60;78.30
21672;DHT22;10997;52.242;8.168;2023-06-10T12:19:01;28.80;77.40
21672;DHT22;10997;52.242;8.168;2023-06-10T12:24:09;28.70;77.30
21672;DHT22;10997;52.242;8.168;2023-06-10T12:29:23;28.80;77.00
21672;DHT22;10997;52.242;8.168;2023-06-10T12:34:37;29.00;76.20
21672;DHT22;10997;52.242;8.168;2023-06-10T12:39:39;29.40;74.10
21672;DHT22;10997;52.242;8.168;2023-06-10T12:44:40;29.20;71.70
21672;DHT22;10997;52.242;8.168;2023-06-10T12:49:41;29.20;71.20
21672;DHT22;10997;52.242;8.168;2023-06-10T12:54:42;29.10;71.60
21672;DHT22;10997;52.242;8.168;2023-06-10T12:59:42;29.10;71.60
21672;DHT22;10997;52.242;8.168;2023-06-10T13:04:50;29.20;71.20
21672;DHT22;10997;52.242;8.168;2023-06-10T13:09:51;29.30;70.90
21672;DHT22;10997;52.242;8.168;2023-06-10T13:14:52;29.40;70.90
21672;DHT22;10997;52.242;8.168;2023-06-10T13:19:53;29.70;72.60
21672;DHT22;10997;52.242;8.168;2023-06-10T13:24:55;30.10;72.60
21672;DHT22;10997;52.242;8.168;2023-06-10T13:29:57;30.10;71.10
21672;DHT22;10997;52.242;8.168;2023-06-10T13:34:57;30.20;72.00
21672;DHT22;10997;52.242;8.168;2023-06-10T13:39:58;30.10;70.70
21672;DHT22;10997;52.242;8.168;2023-06-10T13:44:58;29.90;70.30
21672;DHT22;10997;52.242;8.168;2023-06-10T13:49:59;30.10;71.70
21672;DHT22;10997;52.242;8.168;2023-06-10T13:55:00;30.30;71.70
21672;DHT22;10997;52.242;8.168;2023-06-10T14:00:00;30.40;69.60
21672;DHT22;10997;52.242;8.168;2023-06-10T14:05:01;30.20;69.40
21672;DHT22;10997;52.242;8.168;2023-06-10T14:10:01;30.30;69.10
21672;DHT22;10997;52.242;8.168;2023-06-10T14:15:03;30.40;68.40
21672;DHT22;10997;52.242;8.168;2023-06-10T14:20:04;30.20;69.40
21672;DHT22;10997;52.242;8.168;2023-06-10T14:25:05;30.50;70.60
21672;DHT22;10997;52.242;8.168;2023-06-10T14:30:07;30.50;69.60
21672;DHT22;10997;52.242;8.168;2023-06-10T14:35:08;30.30;69.90
21672;DHT22;10997;52.242;8.168;2023-06-10T14:40:09;30.60;70.20
21672;DHT22;10997;52.242;8.168;2023-06-10T14:45:10;30.60;69.40
21672;DHT22;10997;52.242;8.168;2023-06-10T14:50:10;30.50;69.20
21672;DHT22;10997;52.242;8.168;2023-06-10T14:55:11;30.60;69.10
21672;DHT22;10997;52.242;8.168;2023-06-10T15:00:12;30.50;68.90
21672;DHT22;10997;52.242;8.168;2023-06-10T15:05:16;30.40;68.10
21672;DHT22;10997;52.242;8.168;2023-06-10T15:10:17;30.50;69.60
21672;DHT22;10997;52.242;8.168;2023-06-10T15:15:18;30.80;68.70
21672;DHT22;10997;52.242;8.168;2023-06-10T15:20:19;31.00;68.00
21672;DHT22;10997;52.242;8.168;2023-06-10T15:25:19;31.00;68.60
21672;DHT22;10997;52.242;8.168;2023-06-10T15:30:20;31.10;69.40
21672;DHT22;10997;52.242;8.168;2023-06-10T15:35:21;31.40;71.30
21672;DHT22;10997;52.242;8.168;2023-06-10T15:40:22;31.50;70.90
21672;DHT22;10997;52.242;8.168;2023-06-10T15:45:22;31.30;71.80
21672;DHT22;10997;52.242;8.168;2023-06-10T15:50:23;31.00;72.20
21672;DHT22;10997;52.242;8.168;2023-06-10T15:55:23;31.30;72.00
21672;DHT22;10997;52.242;8.168;2023-06-10T16:00:26;31.40;71.90
21672;DHT22;10997;52.242;8.168;2023-06-10T16:05:26;31.10;72.60
21672;DHT22;10997;52.242;8.168;2023-06-10T16:10:27;30.80;72.50
21672;DHT22;10997;52.242;8.168;2023-06-10T16:15:28;30.70;72.40
21672;DHT22;10997;52.242;8.168;2023-06-10T16:20:28;30.90;72.90
21672;DHT22;10997;52.242;8.168;2023-06-10T16:25:29;30.80;72.80
21672;DHT22;10997;52.242;8.168;2023-06-10T16:30:30;31.00;73.60
21672;DHT22;10997;52.242;8.168;2023-06-10T16:35:32;31.10;73.50
21672;DHT22;10997;52.242;8.168;2023-06-10T16:40:33;31.20;73.70
21672;DHT22;10997;52.242;8.168;2023-06-10T16:45:34;31.40;74.30
21672;DHT22;10997;52.242;8.168;2023-06-10T16:50:34;31.40;72.80
21672;DHT22;10997;52.242;8.168;2023-06-10T16:55:35;31.30;72.30
21672;DHT22;10997;52.242;8.168;2023-06-10T17:00:38;31.30;72.50
21672;DHT22;10997;52.242;8.168;2023-06-10T17:05:39;31.30;72.00
21672;DHT22;10997;52.242;8.168;2023-06-10T17:10:40;31.20;72.80
21672;DHT22;10997;52.242;8.168;2023-06-10T17:15:40;31.20;73.80
21672;DHT22;10997;52.242;8.168;2023-06-10T17:20:41;31.30;73.40
21672;DHT22;10997;52.242;8.168;2023-06-10T17:25:42;31.10;73.00
21672;DHT22;10997;52.242;8.168;2023-06-10T17:30:42;30.80;72.80
21672;DHT22;10997;52.242;8.168;2023-06-10T17:35:46;31.00;73.10
21672;DHT22;10997;52.242;8.168;2023-06-10T17:40:46;30.70;73.70
21672;DHT22;10997;52.242;8.168;2023-06-10T17:45:47;30.70;74.50
21672;DHT22;10997;52.242;8.168;2023-06-10T17:50:52;30.60;74.80
21672;DHT22;10997;52.242;8.168;2023-06-10T17:55:52;30.40;75.50
21672;DHT22;10997;52.242;8.168;2023-06-10T18:00:53;30.40;76.10
21672;DHT22;10997;52.242;8.168;2023-06-10T18:05:55;30.40;76.30
21672;DHT22;10997;52.242;8.168;2023-06-10T18:10:55;30.40;77.00
21672;DHT22;10997;52.242;8.168;2023-06-10T18:15:56;30.40;77.40
21672;DHT22;10997;52.242;8.168;2023-06-10T18:20:57;30.30;77.70
21672;DHT22;10997;52.242;8.168;2023-06-10T18:25:58;30.40;77.80
21672;DHT22;10997;52.242;8.168;2023-06-10T18:30:59;30.10;77.40
21672;DHT22;10997;52.242;8.168;2023-06-10T18:36:00;29.90;77.90
21672;DHT22;10997;52.242;8.168;2023-06-10T18:41:01;29.80;78.00
21672;DHT22;10997;52.242;8.168;2023-06-10T18:46:01;29.50;78.00
21672;DHT22;10997;52.242;8.168;2023-06-10T18:51:02;29.40;78.20
21672;DHT22;10997;52.242;8.168;2023-06-10T18:56:03;29.30;78.80
21672;DHT22;10997;52.242;8.168;2023-06-10T19:01:04;29.10;78.90
21672;DHT22;10997;52.242;8.168;2023-06-10T19:06:05;29.00;79.10
21672;DHT22;10997;52.242;8.168;2023-06-10T19:11:06;29.10;79.60
21672;DHT22;10997;52.242;8.168;2023-06-10T19:16:06;29.20;79.80
21672;DHT22;10997;52.242;8.168;2023-06-10T19:21:07;29.10;80.80
21672;DHT22;10997;52.242;8.168;2023-06-10T19:26:08;28.80;81.20
21672;DHT22;10997;52.242;8.168;2023-06-10T19:31:09;28.60;82.20
21672;DHT22;10997;52.242;8.168;2023-06-10T19:36:09;28.20;83.80
21672;DHT22;10997;52.242;8.168;2023-06-10T19:41:10;27.40;86.20
21672;DHT22;10997;52.242;8.168;2023-06-10T19:46:11;26.80;88.50
21672;DHT22;10997;52.242;8.168;2023-06-10T19:51:11;26.30;89.20
21672;DHT22;10997;52.242;8.168;2023-06-10T19:56:12;26.00;90.00
21672;DHT22;10997;52.242;8.168;2023-06-10T20:01:18;25.60;90.20
21672;DHT22;10997;52.242;8.168;2023-06-10T20:06:19;25.20;91.00
21672;DHT22;10997;52.242;8.168;2023-06-10T20:11:20;24.80;91.50
21672;DHT22;10997;52.242;8.168;2023-06-10T20:16:25;24.60;91.90
21672;DHT22;10997;52.242;8.168;2023-06-10T20:21:25;24.40;92.00
21672;DHT22;10997;52.242;8.168;2023-06-10T20:26:26;24.30;91.70
21672;DHT22;10997;52.242;8.168;2023-06-10T20:31:27;24.00;91.70
21672;DHT22;10997;52.242;8.168;2023-06-10T20:36:27;24.00;91.50
21672;DHT22;10997;52.242;8.168;2023-06-10T20:41:28;23.80;91.80
21672;DHT22;10997;52.242;8.168;2023-06-10T20:46:29;23.60;92.00
21672;DHT22;10997;52.242;8.168;2023-06-10T20:51:30;23.40;92.00
21672;DHT22;10997;52.242;8.168;2023-06-10T20:56:32;23.40;91.80
21672;DHT22;10997;52.242;8.168;2023-06-10T21:01:33;23.40;91.80
21672;DHT22;10997;52.242;8.168;2023-06-10T21:06:34;23.20;91.80
21672;DHT22;10997;52.242;8.168;2023-06-10T21:11:35;23.10;91.70
21672;DHT22;10997;52.242;8.168;2023-06-10T21:16:35;23.00;91.60
21672;DHT22;10997;52.242;8.168;2023-06-10T21:21:37;22.90;91.70
21672;DHT22;10997;52.242;8.168;2023-06-10T21:26:38;22.80;91.90
21672;DHT22;10997;52.242;8.168;2023-06-10T21:31:39;22.70;92.10
21672;DHT22;10997;52.242;8.168;2023-06-10T21:36:40;22.60;92.30
21672;DHT22;10997;52.242;8.168;2023-06-10T21:41:40;22.50;92.60
21672;DHT22;10997;52.242;8.168;2023-06-10T21:46:41;22.40;92.70
21672;DHT22;10997;52.242;8.168;2023-06-10T21:51:41;22.40;92.90
21672;DHT22;10997;52.242;8.168;2023-06-10T21:56:43;22.30;93.10
21672;DHT22;10997;52.242;8.168;2023-06-10T22:01:47;22.20;93.30
21672;DHT22;10997;52.242;8.168;2023-06-10T22:06:47;22.00;93.80
21672;DHT22;10997;52.242;8.168;2023-06-10T22:11:48;21.90;94.10
21672;DHT22;10997;52.242;8.168;2023-06-10T22:16:49;21.60;94.80
21672;DHT22;10997;52.242;8.168;2023-06-10T22:21:50;21.30;95.90
21672;DHT22;10997;52.242;8.168;2023-06-10T22:26:51;21.00;97.00
21672;DHT22;10997;52.242;8.168;2023-06-10T22:31:52;20.60;98.30
21672;DHT22;10997;52.242;8.168;2023-06-10T22:36:52;20.30;99.40
21672;DHT22;10997;52.242;8.168;2023-06-10T22:41:53;20.20;99.90
21672;DHT22;10997;52.242;8.168;2023-06-10T22:46:53;20.10;99.90
21672;DHT22;10997;52.242;8.168;2023-06-10T22:51:54;19.90;99.90
21672;DHT22;10997;52.242;8.168;2023-06-10T22:56:54;19.80;99.90
21672;DHT22;10997;52.242;8.168;2023-06-10T23:01:55;19.80;99.90
21672;DHT22;10997;52.242;8.168;2023-06-10T23:06:56;19.80;99.90
21672;DHT22;10997;52.242;8.168;2023-06-10T23:11:56;19.70;99.90
21672;DHT22;10997;52.242;8.168;2023-06-10T23:16:57;19.50;99.90
21672;DHT22;10997;52.242;8.168;2023-06-10T23:21:59;19.30;99.90
21672;DHT22;10997;52.242;8.168;2023-06-10T23:27:01;19.20;99.90
21672;DHT22;10997;52.242;8.168;2023-06-10T23:32:01;19.10;99.90
21672;DHT22;10997;52.242;8.168;2023-06-10T23:37:02;19.20;99.90
21672;DHT22;10997;52.242;8.168;2023-06-10T23:42:07;19.00;99.90
21672;DHT22;10997;52.242;8.168;2023-06-10T23:47:08;18.70;99.90
21672;DHT22;10997;52.242;8.168;2023-06-10T23:52:08;18.70;99.90
21672;DHT22;10997;52.242;8.168;2023-06-10T23:57:09;18.40;99.90
